N6091 07FA-MKKJ
Flight info
| Callsign | N6091 |
|---|---|
| Flight time | 1h 50m |
| Altitude | 29000 |
| Route | ELLEE A509 URSUS UP406 MERKA DCT IMADI |
| Aircraft | TBM8/L-SDFGRWY/S |
Departure
| Time | 2026-04-29 15:41 |
|---|---|
| Airport | Ocean Reef Club Airport (07FA) |
Arrival
| Time | 2026-04-29 17:31 |
|---|---|
| Airport | Ken Jones Airport (MKKJ) |
| Time | Latitude | Longitude | Altitude | Speed | Heading |
|---|---|---|---|---|---|
| 2026-04-29 15:30 | 25.32080 | -80.27839 | 12 ft | 0 kts | 130° |
| 2026-04-29 15:37 | 25.32066 | -80.27842 | 11 ft | 9 kts | 227° |
| 2026-04-29 15:38 | 25.32012 | -80.27900 | 13 ft | 8 kts | 215° |
| 2026-04-29 15:38 | 25.32005 | -80.27906 | 13 ft | 0 kts | 217° |
| 2026-04-29 15:39 | 25.31992 | -80.27917 | 13 ft | 12 kts | 216° |
| 2026-04-29 15:39 | 25.31974 | -80.27947 | 13 ft | 0 kts | 249° |
| 2026-04-29 15:40 | 25.31992 | -80.27955 | 12 ft | 6 kts | 31° |
| 2026-04-29 15:40 | 25.31997 | -80.27951 | 12 ft | 0 kts | 37° |
| 2026-04-29 15:40 | 25.32117 | -80.27851 | 12 ft | 48 kts | 39° |
| 2026-04-29 15:41 | 25.32507 | -80.27498 | 46 ft | 90 kts | 34° |
| 2026-04-29 15:41 | 25.33053 | -80.27053 | 297 ft | 103 kts | 37° |
| 2026-04-29 15:41 | 25.33566 | -80.26373 | 497 ft | 126 kts | 64° |
| 2026-04-29 15:41 | 25.33728 | -80.25727 | 697 ft | 137 kts | 82° |
| 2026-04-29 15:42 | 25.33534 | -80.24261 | 1047 ft | 155 kts | 112° |
| 2026-04-29 15:42 | 25.32883 | -80.23324 | 1523 ft | 149 kts | 134° |
| 2026-04-29 15:42 | 25.32141 | -80.22541 | 1992 ft | 149 kts | 133° |
| 2026-04-29 15:42 | 25.31663 | -80.22010 | 2343 ft | 146 kts | 132° |
| 2026-04-29 15:43 | 25.30933 | -80.21207 | 2770 ft | 150 kts | 138° |
| 2026-04-29 15:43 | 25.30027 | -80.20629 | 3249 ft | 151 kts | 151° |
| 2026-04-29 15:43 | 25.29094 | -80.20078 | 3692 ft | 153 kts | 147° |
| 2026-04-29 15:43 | 25.28297 | -80.19303 | 4097 ft | 157 kts | 134° |
| 2026-04-29 15:44 | 25.27499 | -80.18417 | 4423 ft | 164 kts | 133° |
| 2026-04-29 15:44 | 25.26756 | -80.17452 | 4859 ft | 165 kts | 129° |
| 2026-04-29 15:44 | 25.26017 | -80.16489 | 5265 ft | 166 kts | 131° |
| 2026-04-29 15:44 | 25.25260 | -80.15532 | 5680 ft | 166 kts | 131° |
| 2026-04-29 15:45 | 25.24497 | -80.14573 | 6081 ft | 166 kts | 130° |
| 2026-04-29 15:45 | 25.23728 | -80.13604 | 6457 ft | 169 kts | 131° |
| 2026-04-29 15:45 | 25.22948 | -80.12628 | 6822 ft | 170 kts | 130° |
| 2026-04-29 15:45 | 25.22165 | -80.11644 | 7188 ft | 171 kts | 129° |
| 2026-04-29 15:46 | 25.21376 | -80.10653 | 7534 ft | 173 kts | 129° |
| 2026-04-29 15:46 | 25.20572 | -80.09639 | 7788 ft | 182 kts | 128° |
| 2026-04-29 15:46 | 25.19722 | -80.08578 | 8045 ft | 188 kts | 129° |
| 2026-04-29 15:46 | 25.18856 | -80.07488 | 8398 ft | 189 kts | 128° |
| 2026-04-29 15:47 | 25.17985 | -80.06396 | 8742 ft | 190 kts | 127° |
| 2026-04-29 15:47 | 25.17107 | -80.05292 | 9073 ft | 192 kts | 127° |
| 2026-04-29 15:47 | 25.16219 | -80.04179 | 9396 ft | 194 kts | 127° |
| 2026-04-29 15:47 | 25.15323 | -80.03054 | 9743 ft | 195 kts | 126° |
| 2026-04-29 15:48 | 25.14422 | -80.01925 | 10061 ft | 196 kts | 126° |
| 2026-04-29 15:48 | 25.13527 | -80.00804 | 10364 ft | 198 kts | 126° |
| 2026-04-29 15:48 | 25.12613 | -79.99658 | 10659 ft | 199 kts | 126° |
| 2026-04-29 15:48 | 25.11693 | -79.98506 | 10957 ft | 201 kts | 126° |
| 2026-04-29 15:49 | 25.10765 | -79.97343 | 11255 ft | 202 kts | 126° |
| 2026-04-29 15:49 | 25.09829 | -79.96172 | 11550 ft | 204 kts | 126° |
| 2026-04-29 15:49 | 25.08891 | -79.94996 | 11848 ft | 205 kts | 126° |
| 2026-04-29 15:49 | 25.07942 | -79.93808 | 12136 ft | 207 kts | 126° |
| 2026-04-29 15:50 | 25.06986 | -79.92612 | 12424 ft | 208 kts | 126° |
| 2026-04-29 15:50 | 25.06033 | -79.91419 | 12716 ft | 210 kts | 126° |
| 2026-04-29 15:50 | 25.05063 | -79.90208 | 13008 ft | 211 kts | 126° |
| 2026-04-29 15:50 | 25.04084 | -79.88983 | 13299 ft | 213 kts | 126° |
| 2026-04-29 15:51 | 25.03099 | -79.87751 | 13593 ft | 214 kts | 126° |
| 2026-04-29 15:51 | 25.02106 | -79.86510 | 13882 ft | 216 kts | 126° |
| 2026-04-29 15:51 | 25.01109 | -79.85265 | 14141 ft | 217 kts | 126° |
| 2026-04-29 15:51 | 25.00109 | -79.84015 | 14407 ft | 218 kts | 126° |
| 2026-04-29 15:52 | 24.99116 | -79.82775 | 14663 ft | 219 kts | 126° |
| 2026-04-29 15:52 | 24.98107 | -79.81515 | 14923 ft | 220 kts | 126° |
| 2026-04-29 15:52 | 24.97093 | -79.80250 | 15189 ft | 220 kts | 127° |
| 2026-04-29 15:52 | 24.96079 | -79.78984 | 15450 ft | 221 kts | 127° |
| 2026-04-29 15:53 | 24.95052 | -79.77703 | 15704 ft | 222 kts | 127° |
| 2026-04-29 15:53 | 24.94026 | -79.76423 | 15963 ft | 223 kts | 128° |
| 2026-04-29 15:53 | 24.92995 | -79.75138 | 16219 ft | 224 kts | 128° |
| 2026-04-29 15:53 | 24.91975 | -79.73866 | 16471 ft | 225 kts | 128° |
| 2026-04-29 15:54 | 24.90935 | -79.72571 | 16722 ft | 226 kts | 128° |
| 2026-04-29 15:54 | 24.89892 | -79.71270 | 16976 ft | 227 kts | 128° |
| 2026-04-29 15:54 | 24.88844 | -79.69965 | 17227 ft | 227 kts | 128° |
| 2026-04-29 15:54 | 24.87733 | -79.68741 | 17451 ft | 231 kts | 141° |
| 2026-04-29 15:55 | 24.86361 | -79.67798 | 17713 ft | 232 kts | 141° |
| 2026-04-29 15:55 | 24.85044 | -79.66763 | 17896 ft | 233 kts | 139° |
| 2026-04-29 15:55 | 24.83687 | -79.65773 | 18098 ft | 234 kts | 143° |
| 2026-04-29 15:55 | 24.82297 | -79.64829 | 18310 ft | 235 kts | 143° |
| 2026-04-29 15:56 | 24.80912 | -79.63862 | 18493 ft | 236 kts | 142° |
| 2026-04-29 15:56 | 24.79535 | -79.62883 | 18661 ft | 236 kts | 142° |
| 2026-04-29 15:56 | 24.78150 | -79.61900 | 18830 ft | 237 kts | 142° |
| 2026-04-29 15:56 | 24.76761 | -79.60915 | 18996 ft | 238 kts | 142° |
| 2026-04-29 15:57 | 24.75381 | -79.59937 | 19156 ft | 239 kts | 142° |
| 2026-04-29 15:57 | 24.73984 | -79.58948 | 19322 ft | 239 kts | 142° |
| 2026-04-29 15:57 | 24.72580 | -79.57954 | 19486 ft | 240 kts | 142° |
| 2026-04-29 15:57 | 24.71174 | -79.56958 | 19647 ft | 241 kts | 142° |
| 2026-04-29 15:58 | 24.69764 | -79.55960 | 19808 ft | 241 kts | 142° |
| 2026-04-29 15:58 | 24.68346 | -79.54956 | 19967 ft | 242 kts | 142° |
| 2026-04-29 15:58 | 24.66925 | -79.53951 | 20125 ft | 243 kts | 142° |
| 2026-04-29 15:58 | 24.65514 | -79.52953 | 20281 ft | 244 kts | 142° |
| 2026-04-29 15:59 | 24.64081 | -79.51940 | 20445 ft | 244 kts | 142° |
| 2026-04-29 15:59 | 24.62651 | -79.50930 | 20610 ft | 244 kts | 142° |
| 2026-04-29 15:59 | 24.61235 | -79.49927 | 20758 ft | 245 kts | 142° |
| 2026-04-29 15:59 | 24.59796 | -79.48912 | 20908 ft | 245 kts | 142° |
| 2026-04-29 16:00 | 24.58350 | -79.47890 | 21059 ft | 246 kts | 142° |
| 2026-04-29 16:00 | 24.56952 | -79.46907 | 21371 ft | 239 kts | 142° |
| 2026-04-29 16:00 | 24.55550 | -79.45912 | 21523 ft | 240 kts | 142° |
| 2026-04-29 16:00 | 24.54141 | -79.44919 | 21679 ft | 241 kts | 142° |
| 2026-04-29 16:01 | 24.52727 | -79.43922 | 21834 ft | 242 kts | 142° |
| 2026-04-29 16:01 | 24.51310 | -79.42923 | 22001 ft | 242 kts | 142° |
| 2026-04-29 16:01 | 24.49890 | -79.41922 | 22172 ft | 243 kts | 142° |
| 2026-04-29 16:01 | 24.48465 | -79.40917 | 22332 ft | 243 kts | 142° |
| 2026-04-29 16:02 | 24.47036 | -79.39911 | 22482 ft | 244 kts | 142° |
| 2026-04-29 16:02 | 24.45621 | -79.38913 | 22629 ft | 245 kts | 142° |
| 2026-04-29 16:02 | 24.44186 | -79.37903 | 22783 ft | 245 kts | 142° |
| 2026-04-29 16:02 | 24.42747 | -79.36889 | 22933 ft | 246 kts | 142° |
| 2026-04-29 16:03 | 24.41300 | -79.35871 | 23083 ft | 247 kts | 142° |
| 2026-04-29 16:03 | 24.39851 | -79.34850 | 23229 ft | 248 kts | 142° |
| 2026-04-29 16:03 | 24.38395 | -79.33827 | 23372 ft | 248 kts | 142° |
| 2026-04-29 16:03 | 24.36954 | -79.32813 | 23515 ft | 249 kts | 142° |
| 2026-04-29 16:04 | 24.35490 | -79.31783 | 23653 ft | 250 kts | 142° |
| 2026-04-29 16:04 | 24.34025 | -79.30753 | 23777 ft | 250 kts | 142° |
| 2026-04-29 16:04 | 24.32556 | -79.29721 | 23894 ft | 251 kts | 142° |
| 2026-04-29 16:04 | 24.31083 | -79.28686 | 24011 ft | 251 kts | 142° |
| 2026-04-29 16:05 | 24.29626 | -79.27662 | 24129 ft | 252 kts | 142° |
| 2026-04-29 16:05 | 24.28150 | -79.26626 | 24240 ft | 252 kts | 142° |
| 2026-04-29 16:05 | 24.26670 | -79.25587 | 24354 ft | 253 kts | 142° |
| 2026-04-29 16:05 | 24.25186 | -79.24546 | 24467 ft | 253 kts | 142° |
| 2026-04-29 16:06 | 24.23699 | -79.23503 | 24576 ft | 253 kts | 142° |
| 2026-04-29 16:06 | 24.22212 | -79.22459 | 24686 ft | 254 kts | 142° |
| 2026-04-29 16:06 | 24.20737 | -79.21425 | 24793 ft | 254 kts | 142° |
| 2026-04-29 16:06 | 24.19246 | -79.20380 | 24900 ft | 255 kts | 142° |
| 2026-04-29 16:07 | 24.17750 | -79.19331 | 25006 ft | 255 kts | 142° |
| 2026-04-29 16:07 | 24.16250 | -79.18280 | 25113 ft | 256 kts | 142° |
| 2026-04-29 16:07 | 24.14750 | -79.17229 | 25217 ft | 256 kts | 142° |
| 2026-04-29 16:07 | 24.13245 | -79.16176 | 25322 ft | 256 kts | 142° |
| 2026-04-29 16:08 | 24.11758 | -79.15134 | 25418 ft | 257 kts | 142° |
| 2026-04-29 16:08 | 24.10241 | -79.14073 | 25520 ft | 257 kts | 142° |
| 2026-04-29 16:08 | 24.08733 | -79.13018 | 25614 ft | 258 kts | 142° |
| 2026-04-29 16:08 | 24.07217 | -79.11957 | 25720 ft | 258 kts | 142° |
| 2026-04-29 16:09 | 24.05720 | -79.10911 | 25821 ft | 258 kts | 142° |
| 2026-04-29 16:09 | 24.04198 | -79.09845 | 25918 ft | 259 kts | 142° |
| 2026-04-29 16:09 | 24.02677 | -79.08780 | 26017 ft | 259 kts | 142° |
| 2026-04-29 16:09 | 24.01150 | -79.07716 | 26118 ft | 260 kts | 142° |
| 2026-04-29 16:10 | 23.99510 | -79.06854 | 26161 ft | 264 kts | 161° |
| 2026-04-29 16:10 | 23.97704 | -79.06463 | 26295 ft | 263 kts | 167° |
| 2026-04-29 16:10 | 23.95916 | -79.06116 | 26394 ft | 264 kts | 166° |
| 2026-04-29 16:10 | 23.94099 | -79.05755 | 26491 ft | 264 kts | 166° |
| 2026-04-29 16:11 | 23.92313 | -79.05401 | 26732 ft | 258 kts | 166° |
| 2026-04-29 16:11 | 23.90547 | -79.05049 | 26842 ft | 258 kts | 167° |
| 2026-04-29 16:11 | 23.88778 | -79.04700 | 26935 ft | 258 kts | 167° |
| 2026-04-29 16:11 | 23.87007 | -79.04350 | 27041 ft | 259 kts | 166° |
| 2026-04-29 16:12 | 23.85232 | -79.03997 | 27140 ft | 259 kts | 166° |
| 2026-04-29 16:12 | 23.84055 | -79.03763 | 27205 ft | 259 kts | 166° |
| 2026-04-29 16:12 | 23.81695 | -79.03296 | 27334 ft | 260 kts | 167° |
| 2026-04-29 16:12 | 23.79917 | -79.02944 | 27434 ft | 260 kts | 166° |
| 2026-04-29 16:13 | 23.78132 | -79.02591 | 27524 ft | 261 kts | 167° |
| 2026-04-29 16:13 | 23.76342 | -79.02237 | 27616 ft | 261 kts | 167° |
| 2026-04-29 16:13 | 23.74551 | -79.01882 | 27710 ft | 261 kts | 166° |
| 2026-04-29 16:13 | 23.72756 | -79.01527 | 27797 ft | 262 kts | 166° |
| 2026-04-29 16:14 | 23.70983 | -79.01177 | 27886 ft | 262 kts | 167° |
| 2026-04-29 16:14 | 23.69184 | -79.00821 | 27973 ft | 262 kts | 166° |
| 2026-04-29 16:14 | 23.67384 | -79.00466 | 28057 ft | 263 kts | 167° |
| 2026-04-29 16:14 | 23.65581 | -79.00110 | 28147 ft | 263 kts | 167° |
| 2026-04-29 16:15 | 23.63782 | -78.99754 | 28232 ft | 263 kts | 167° |
| 2026-04-29 16:15 | 23.61980 | -78.99398 | 28312 ft | 264 kts | 167° |
| 2026-04-29 16:15 | 23.60172 | -78.99042 | 28394 ft | 264 kts | 167° |
| 2026-04-29 16:15 | 23.58360 | -78.98684 | 28476 ft | 264 kts | 167° |
| 2026-04-29 16:16 | 23.56552 | -78.98328 | 28556 ft | 264 kts | 167° |
| 2026-04-29 16:16 | 23.54742 | -78.97971 | 28635 ft | 265 kts | 167° |
| 2026-04-29 16:16 | 23.52928 | -78.97613 | 28715 ft | 265 kts | 167° |
| 2026-04-29 16:16 | 23.51133 | -78.97260 | 28791 ft | 265 kts | 167° |
| 2026-04-29 16:17 | 23.49315 | -78.96901 | 28863 ft | 265 kts | 167° |
| 2026-04-29 16:17 | 23.47488 | -78.96541 | 28937 ft | 266 kts | 167° |
| 2026-04-29 16:17 | 23.45662 | -78.96182 | 29007 ft | 266 kts | 167° |
| 2026-04-29 16:17 | 23.43838 | -78.95823 | 29081 ft | 266 kts | 167° |
| 2026-04-29 16:18 | 23.42024 | -78.95465 | 29079 ft | 270 kts | 167° |
| 2026-04-29 16:18 | 23.40163 | -78.95099 | 29082 ft | 272 kts | 167° |
| 2026-04-29 16:18 | 23.38281 | -78.94728 | 29085 ft | 275 kts | 167° |
| 2026-04-29 16:18 | 23.36385 | -78.94355 | 29081 ft | 277 kts | 167° |
| 2026-04-29 16:19 | 23.34498 | -78.93984 | 29080 ft | 280 kts | 172° |
| 2026-04-29 16:19 | 23.32555 | -78.93677 | 29091 ft | 283 kts | 173° |
| 2026-04-29 16:19 | 23.30599 | -78.93330 | 29097 ft | 287 kts | 169° |
| 2026-04-29 16:19 | 23.28627 | -78.92895 | 29099 ft | 290 kts | 169° |
| 2026-04-29 16:20 | 23.26632 | -78.92476 | 29100 ft | 293 kts | 170° |
| 2026-04-29 16:20 | 23.24637 | -78.92094 | 29096 ft | 296 kts | 171° |
| 2026-04-29 16:20 | 23.22601 | -78.91702 | 29093 ft | 298 kts | 170° |
| 2026-04-29 16:20 | 23.20548 | -78.91297 | 29097 ft | 300 kts | 170° |
| 2026-04-29 16:21 | 23.18478 | -78.90888 | 29098 ft | 302 kts | 170° |
| 2026-04-29 16:21 | 23.14340 | -78.90077 | 29097 ft | 305 kts | 170° |
| 2026-04-29 16:22 | 23.10128 | -78.89250 | 29094 ft | 308 kts | 170° |
| 2026-04-29 16:22 | 23.05919 | -78.88425 | 29092 ft | 309 kts | 170° |
| 2026-04-29 16:23 | 23.01669 | -78.87591 | 29092 ft | 311 kts | 171° |
| 2026-04-29 16:23 | 22.97401 | -78.86756 | 29094 ft | 311 kts | 171° |
| 2026-04-29 16:24 | 22.93855 | -78.86062 | 29090 ft | 312 kts | 171° |
| 2026-04-29 16:24 | 22.89578 | -78.85225 | 29089 ft | 312 kts | 171° |
| 2026-04-29 16:25 | 22.84594 | -78.84250 | 29090 ft | 313 kts | 171° |
| 2026-04-29 16:25 | 22.80293 | -78.83410 | 29090 ft | 313 kts | 171° |
| 2026-04-29 16:26 | 22.76023 | -78.82577 | 29088 ft | 313 kts | 171° |
| 2026-04-29 16:26 | 22.71724 | -78.81737 | 29086 ft | 314 kts | 171° |
| 2026-04-29 16:27 | 22.67426 | -78.80899 | 29076 ft | 313 kts | 172° |
| 2026-04-29 16:27 | 22.63122 | -78.80061 | 29077 ft | 314 kts | 172° |
| 2026-04-29 16:28 | 22.58850 | -78.79227 | 29077 ft | 313 kts | 171° |
| 2026-04-29 16:28 | 22.56764 | -78.78525 | 29077 ft | 315 kts | 159° |
| 2026-04-29 16:28 | 22.54730 | -78.77625 | 29077 ft | 315 kts | 160° |
| 2026-04-29 16:29 | 22.50645 | -78.75901 | 29078 ft | 315 kts | 160° |
| 2026-04-29 16:29 | 22.47256 | -78.74446 | 29077 ft | 314 kts | 160° |
| 2026-04-29 16:30 | 22.42526 | -78.72425 | 29074 ft | 314 kts | 160° |
| 2026-04-29 16:30 | 22.39139 | -78.70978 | 29074 ft | 315 kts | 160° |
| 2026-04-29 16:31 | 22.35053 | -78.69234 | 29066 ft | 314 kts | 161° |
| 2026-04-29 16:31 | 22.30980 | -78.67496 | 29067 ft | 314 kts | 162° |
| 2026-04-29 16:32 | 22.26948 | -78.65778 | 29069 ft | 312 kts | 162° |
| 2026-04-29 16:32 | 22.22901 | -78.64052 | 29068 ft | 311 kts | 162° |
| 2026-04-29 16:33 | 22.16888 | -78.61493 | 29061 ft | 310 kts | 162° |
| 2026-04-29 16:33 | 22.12861 | -78.59780 | 29061 ft | 310 kts | 162° |
| 2026-04-29 16:34 | 22.08836 | -78.58068 | 29058 ft | 310 kts | 162° |
| 2026-04-29 16:34 | 22.04849 | -78.56374 | 29049 ft | 310 kts | 162° |
| 2026-04-29 16:35 | 22.00844 | -78.54673 | 29048 ft | 309 kts | 162° |
| 2026-04-29 16:35 | 21.96843 | -78.52976 | 29047 ft | 307 kts | 162° |
| 2026-04-29 16:36 | 21.92886 | -78.51298 | 29046 ft | 307 kts | 162° |
| 2026-04-29 16:36 | 21.88910 | -78.49612 | 29037 ft | 306 kts | 162° |
| 2026-04-29 16:37 | 21.84956 | -78.47937 | 29036 ft | 306 kts | 162° |
| 2026-04-29 16:37 | 21.81635 | -78.46531 | 29036 ft | 306 kts | 162° |
| 2026-04-29 16:38 | 21.77039 | -78.44587 | 29032 ft | 305 kts | 162° |
| 2026-04-29 16:38 | 21.73085 | -78.42915 | 29033 ft | 305 kts | 162° |
| 2026-04-29 16:39 | 21.69135 | -78.41245 | 29034 ft | 305 kts | 163° |
| 2026-04-29 16:39 | 21.65177 | -78.39573 | 29028 ft | 305 kts | 163° |
| 2026-04-29 16:40 | 21.61236 | -78.37910 | 29028 ft | 306 kts | 163° |
| 2026-04-29 16:40 | 21.57267 | -78.36235 | 29028 ft | 306 kts | 163° |
| 2026-04-29 16:41 | 21.53297 | -78.34562 | 29028 ft | 306 kts | 163° |
| 2026-04-29 16:41 | 21.49355 | -78.32902 | 29027 ft | 305 kts | 163° |
| 2026-04-29 16:42 | 21.45407 | -78.31238 | 29029 ft | 304 kts | 163° |
| 2026-04-29 16:42 | 21.41472 | -78.29582 | 29027 ft | 304 kts | 163° |
| 2026-04-29 16:43 | 21.37540 | -78.27928 | 29023 ft | 303 kts | 163° |
| 2026-04-29 16:43 | 21.33635 | -78.26287 | 29026 ft | 303 kts | 164° |
| 2026-04-29 16:44 | 21.29717 | -78.24641 | 29029 ft | 302 kts | 164° |
| 2026-04-29 16:44 | 21.25805 | -78.22998 | 29029 ft | 302 kts | 164° |
| 2026-04-29 16:45 | 21.21888 | -78.21355 | 29026 ft | 302 kts | 164° |
| 2026-04-29 16:45 | 21.17961 | -78.19707 | 29026 ft | 302 kts | 164° |
| 2026-04-29 16:46 | 21.14041 | -78.18064 | 29025 ft | 302 kts | 164° |
| 2026-04-29 16:46 | 21.10141 | -78.16431 | 29019 ft | 302 kts | 164° |
| 2026-04-29 16:47 | 21.06209 | -78.14784 | 29023 ft | 302 kts | 164° |
| 2026-04-29 16:47 | 21.02302 | -78.13150 | 29023 ft | 302 kts | 164° |
| 2026-04-29 16:48 | 20.98393 | -78.11514 | 29017 ft | 303 kts | 164° |
| 2026-04-29 16:48 | 20.94461 | -78.09871 | 29020 ft | 302 kts | 164° |
| 2026-04-29 16:49 | 20.90538 | -78.08232 | 29020 ft | 302 kts | 164° |
| 2026-04-29 16:49 | 20.86637 | -78.06603 | 29020 ft | 302 kts | 164° |
| 2026-04-29 16:50 | 20.82704 | -78.04962 | 29020 ft | 303 kts | 164° |
| 2026-04-29 16:50 | 20.78799 | -78.03333 | 29020 ft | 303 kts | 164° |
| 2026-04-29 16:51 | 20.74862 | -78.01693 | 29020 ft | 303 kts | 164° |
| 2026-04-29 16:51 | 20.70935 | -78.00056 | 29018 ft | 302 kts | 165° |
| 2026-04-29 16:52 | 20.67035 | -77.98432 | 29022 ft | 302 kts | 165° |
| 2026-04-29 16:52 | 20.63104 | -77.96796 | 29022 ft | 303 kts | 165° |
| 2026-04-29 16:53 | 20.59173 | -77.95161 | 29021 ft | 302 kts | 166° |
| 2026-04-29 16:53 | 20.55278 | -77.93542 | 29023 ft | 301 kts | 166° |
| 2026-04-29 16:54 | 20.51364 | -77.91916 | 29026 ft | 301 kts | 166° |
| 2026-04-29 16:54 | 20.47467 | -77.90298 | 29025 ft | 300 kts | 166° |
| 2026-04-29 16:55 | 20.45538 | -77.89498 | 29022 ft | 300 kts | 166° |
| 2026-04-29 16:55 | 20.43587 | -77.88687 | 29025 ft | 300 kts | 166° |
| 2026-04-29 16:55 | 20.41640 | -77.87880 | 29024 ft | 300 kts | 166° |
| 2026-04-29 16:55 | 20.39698 | -77.87075 | 29024 ft | 300 kts | 166° |
| 2026-04-29 16:56 | 20.37755 | -77.86269 | 29014 ft | 299 kts | 166° |
| 2026-04-29 16:56 | 20.35814 | -77.85465 | 29020 ft | 299 kts | 166° |
| 2026-04-29 16:56 | 20.33877 | -77.84662 | 29021 ft | 298 kts | 166° |
| 2026-04-29 16:56 | 20.31940 | -77.83860 | 29021 ft | 298 kts | 166° |
| 2026-04-29 16:57 | 20.30032 | -77.83070 | 29018 ft | 297 kts | 166° |
| 2026-04-29 16:57 | 20.28102 | -77.82270 | 29017 ft | 297 kts | 166° |
| 2026-04-29 16:57 | 20.26172 | -77.81472 | 29017 ft | 297 kts | 166° |
| 2026-04-29 16:57 | 20.24245 | -77.80674 | 29017 ft | 297 kts | 166° |
| 2026-04-29 16:58 | 20.22321 | -77.79878 | 29019 ft | 297 kts | 166° |
| 2026-04-29 16:58 | 20.20392 | -77.79080 | 29019 ft | 296 kts | 166° |
| 2026-04-29 16:58 | 20.18465 | -77.78284 | 29019 ft | 296 kts | 166° |
| 2026-04-29 16:58 | 20.16542 | -77.77489 | 29019 ft | 296 kts | 166° |
| 2026-04-29 16:59 | 20.14644 | -77.76704 | 29018 ft | 296 kts | 166° |
| 2026-04-29 16:59 | 20.12724 | -77.75911 | 29018 ft | 296 kts | 166° |
| 2026-04-29 16:59 | 20.10804 | -77.75119 | 29018 ft | 295 kts | 166° |
| 2026-04-29 16:59 | 20.08888 | -77.74327 | 29017 ft | 295 kts | 166° |
| 2026-04-29 17:00 | 20.06973 | -77.73533 | 29021 ft | 296 kts | 165° |
| 2026-04-29 17:00 | 20.05120 | -77.72525 | 29024 ft | 301 kts | 156° |
| 2026-04-29 17:00 | 20.01576 | -77.70099 | 29020 ft | 301 kts | 155° |
| 2026-04-29 17:01 | 19.99805 | -77.68960 | 29019 ft | 300 kts | 156° |
| 2026-04-29 17:01 | 19.98014 | -77.67819 | 29019 ft | 300 kts | 156° |
| 2026-04-29 17:01 | 19.96231 | -77.66658 | 29019 ft | 300 kts | 155° |
| 2026-04-29 17:01 | 19.94454 | -77.65495 | 29019 ft | 300 kts | 155° |
| 2026-04-29 17:02 | 19.92675 | -77.64340 | 29019 ft | 300 kts | 156° |
| 2026-04-29 17:02 | 19.90894 | -77.63187 | 29019 ft | 299 kts | 156° |
| 2026-04-29 17:02 | 19.89131 | -77.62041 | 29018 ft | 299 kts | 156° |
| 2026-04-29 17:02 | 19.87353 | -77.60887 | 29019 ft | 300 kts | 156° |
| 2026-04-29 17:03 | 19.85573 | -77.59732 | 29021 ft | 300 kts | 155° |
| 2026-04-29 17:03 | 19.83795 | -77.58577 | 29021 ft | 299 kts | 156° |
| 2026-04-29 17:03 | 19.82013 | -77.57422 | 29022 ft | 299 kts | 156° |
| 2026-04-29 17:03 | 19.80234 | -77.56268 | 29022 ft | 299 kts | 156° |
| 2026-04-29 17:04 | 19.78459 | -77.55118 | 29018 ft | 298 kts | 156° |
| 2026-04-29 17:04 | 19.76686 | -77.53968 | 29018 ft | 298 kts | 156° |
| 2026-04-29 17:04 | 19.74936 | -77.52835 | 29015 ft | 298 kts | 156° |
| 2026-04-29 17:04 | 19.73166 | -77.51687 | 29015 ft | 298 kts | 156° |
| 2026-04-29 17:05 | 19.71397 | -77.50542 | 29015 ft | 298 kts | 156° |
| 2026-04-29 17:05 | 19.69624 | -77.49394 | 29015 ft | 297 kts | 156° |
| 2026-04-29 17:05 | 19.67858 | -77.48251 | 29011 ft | 297 kts | 156° |
| 2026-04-29 17:05 | 19.66115 | -77.47123 | 29011 ft | 297 kts | 156° |
| 2026-04-29 17:06 | 19.64351 | -77.45982 | 29008 ft | 297 kts | 156° |
| 2026-04-29 17:06 | 19.62588 | -77.44842 | 29008 ft | 296 kts | 156° |
| 2026-04-29 17:06 | 19.60826 | -77.43702 | 29008 ft | 296 kts | 156° |
| 2026-04-29 17:06 | 19.59066 | -77.42565 | 29009 ft | 296 kts | 156° |
| 2026-04-29 17:07 | 19.57304 | -77.41425 | 29012 ft | 296 kts | 156° |
| 2026-04-29 17:07 | 19.56140 | -77.40674 | 29012 ft | 296 kts | 156° |
| 2026-04-29 17:07 | 19.53786 | -77.39153 | 29012 ft | 296 kts | 156° |
| 2026-04-29 17:07 | 19.52025 | -77.38016 | 29012 ft | 296 kts | 156° |
| 2026-04-29 17:08 | 19.50265 | -77.36880 | 29012 ft | 296 kts | 156° |
| 2026-04-29 17:08 | 19.48529 | -77.35759 | 29012 ft | 296 kts | 156° |
| 2026-04-29 17:08 | 19.46768 | -77.34623 | 29011 ft | 296 kts | 156° |
| 2026-04-29 17:08 | 19.45004 | -77.33484 | 29011 ft | 296 kts | 156° |
| 2026-04-29 17:09 | 19.43249 | -77.32353 | 29006 ft | 296 kts | 156° |
| 2026-04-29 17:09 | 19.41490 | -77.31218 | 29006 ft | 296 kts | 156° |
| 2026-04-29 17:09 | 19.39727 | -77.30082 | 29006 ft | 296 kts | 156° |
| 2026-04-29 17:09 | 19.37966 | -77.28947 | 29006 ft | 296 kts | 156° |
| 2026-04-29 17:10 | 19.36225 | -77.27825 | 29008 ft | 296 kts | 157° |
| 2026-04-29 17:10 | 19.34463 | -77.26691 | 28997 ft | 296 kts | 157° |
| 2026-04-29 17:10 | 19.32704 | -77.25557 | 29005 ft | 295 kts | 157° |
| 2026-04-29 17:10 | 19.30944 | -77.24425 | 29011 ft | 295 kts | 157° |
| 2026-04-29 17:11 | 19.29207 | -77.23307 | 29009 ft | 296 kts | 157° |
| 2026-04-29 17:11 | 19.27449 | -77.22176 | 29005 ft | 296 kts | 158° |
| 2026-04-29 17:11 | 19.25687 | -77.21042 | 29005 ft | 296 kts | 158° |
| 2026-04-29 17:11 | 19.23922 | -77.19907 | 29005 ft | 296 kts | 158° |
| 2026-04-29 17:12 | 19.22160 | -77.18774 | 29002 ft | 296 kts | 158° |
| 2026-04-29 17:12 | 19.20395 | -77.17639 | 29000 ft | 296 kts | 158° |
| 2026-04-29 17:12 | 19.18652 | -77.16520 | 29000 ft | 296 kts | 158° |
| 2026-04-29 17:12 | 19.17482 | -77.15767 | 29001 ft | 296 kts | 158° |
| 2026-04-29 17:13 | 19.15121 | -77.14251 | 29001 ft | 296 kts | 158° |
| 2026-04-29 17:13 | 19.13358 | -77.13118 | 29000 ft | 296 kts | 158° |
| 2026-04-29 17:13 | 19.11614 | -77.11999 | 29000 ft | 296 kts | 158° |
| 2026-04-29 17:13 | 19.09845 | -77.10863 | 29000 ft | 296 kts | 158° |
| 2026-04-29 17:14 | 19.08078 | -77.09730 | 29003 ft | 296 kts | 158° |
| 2026-04-29 17:14 | 19.06337 | -77.08613 | 28994 ft | 296 kts | 158° |
| 2026-04-29 17:14 | 19.04567 | -77.07477 | 28999 ft | 296 kts | 158° |
| 2026-04-29 17:14 | 19.02807 | -77.06349 | 28994 ft | 296 kts | 158° |
| 2026-04-29 17:15 | 19.01018 | -77.05205 | 28706 ft | 305 kts | 158° |
| 2026-04-29 17:15 | 18.99176 | -77.04039 | 28302 ft | 311 kts | 158° |
| 2026-04-29 17:15 | 18.97339 | -77.02863 | 27930 ft | 314 kts | 157° |
| 2026-04-29 17:15 | 18.95471 | -77.01654 | 27559 ft | 316 kts | 157° |
| 2026-04-29 17:16 | 18.93587 | -77.00444 | 27191 ft | 317 kts | 157° |
| 2026-04-29 17:16 | 18.91693 | -76.99234 | 26822 ft | 318 kts | 156° |
| 2026-04-29 17:16 | 18.89791 | -76.98017 | 26461 ft | 319 kts | 156° |
| 2026-04-29 17:16 | 18.87896 | -76.96804 | 26106 ft | 319 kts | 156° |
| 2026-04-29 17:17 | 18.85999 | -76.95589 | 25756 ft | 318 kts | 155° |
| 2026-04-29 17:17 | 18.84743 | -76.94786 | 25525 ft | 318 kts | 155° |
| 2026-04-29 17:17 | 18.82230 | -76.93180 | 25066 ft | 317 kts | 155° |
| 2026-04-29 17:17 | 18.80950 | -76.92362 | 24835 ft | 316 kts | 155° |
| 2026-04-29 17:18 | 18.79108 | -76.91188 | 24499 ft | 311 kts | 154° |
| 2026-04-29 17:18 | 18.77262 | -76.90005 | 24164 ft | 308 kts | 154° |
| 2026-04-29 17:18 | 18.75440 | -76.88843 | 23833 ft | 301 kts | 154° |
| 2026-04-29 17:18 | 18.73674 | -76.87721 | 23490 ft | 293 kts | 154° |
| 2026-04-29 17:19 | 18.71949 | -76.86613 | 23090 ft | 286 kts | 154° |
| 2026-04-29 17:19 | 18.70260 | -76.85531 | 22697 ft | 281 kts | 154° |
| 2026-04-29 17:19 | 18.68597 | -76.84472 | 22310 ft | 279 kts | 154° |
| 2026-04-29 17:19 | 18.66947 | -76.83413 | 21933 ft | 282 kts | 154° |
| 2026-04-29 17:20 | 18.65257 | -76.82340 | 21562 ft | 284 kts | 154° |
| 2026-04-29 17:20 | 18.63562 | -76.81263 | 21189 ft | 284 kts | 153° |
| 2026-04-29 17:20 | 18.61870 | -76.80184 | 20819 ft | 284 kts | 153° |
| 2026-04-29 17:20 | 18.60177 | -76.79104 | 20457 ft | 283 kts | 153° |
| 2026-04-29 17:21 | 18.58513 | -76.78043 | 20110 ft | 283 kts | 152° |
| 2026-04-29 17:21 | 18.56831 | -76.76972 | 19759 ft | 281 kts | 152° |
| 2026-04-29 17:21 | 18.55152 | -76.75903 | 19411 ft | 280 kts | 152° |
| 2026-04-29 17:21 | 18.53487 | -76.74843 | 19065 ft | 279 kts | 152° |
| 2026-04-29 17:22 | 18.51822 | -76.73782 | 18727 ft | 278 kts | 151° |
| 2026-04-29 17:22 | 18.50194 | -76.72747 | 18397 ft | 276 kts | 151° |
| 2026-04-29 17:22 | 18.48547 | -76.71701 | 18027 ft | 275 kts | 151° |
| 2026-04-29 17:22 | 18.47029 | -76.70474 | 17639 ft | 275 kts | 138° |
| 2026-04-29 17:23 | 18.45687 | -76.69022 | 16995 ft | 273 kts | 136° |
| 2026-04-29 17:23 | 18.44418 | -76.67665 | 16281 ft | 246 kts | 139° |
| 2026-04-29 17:23 | 18.43209 | -76.66480 | 15573 ft | 228 kts | 140° |
| 2026-04-29 17:23 | 18.42086 | -76.65398 | 14895 ft | 216 kts | 140° |
| 2026-04-29 17:24 | 18.41004 | -76.64343 | 14220 ft | 207 kts | 140° |
| 2026-04-29 17:24 | 18.39965 | -76.63329 | 13532 ft | 200 kts | 140° |
| 2026-04-29 17:24 | 18.38957 | -76.62347 | 12833 ft | 193 kts | 140° |
| 2026-04-29 17:24 | 18.37993 | -76.61404 | 12213 ft | 186 kts | 141° |
| 2026-04-29 17:25 | 18.37057 | -76.60494 | 11600 ft | 180 kts | 141° |
| 2026-04-29 17:25 | 18.36148 | -76.59609 | 11002 ft | 176 kts | 140° |
| 2026-04-29 17:25 | 18.35268 | -76.58752 | 10424 ft | 173 kts | 139° |
| 2026-04-29 17:25 | 18.34390 | -76.57899 | 9841 ft | 170 kts | 139° |
| 2026-04-29 17:26 | 18.33522 | -76.57051 | 9220 ft | 169 kts | 138° |
| 2026-04-29 17:26 | 18.32666 | -76.56218 | 8598 ft | 166 kts | 138° |
| 2026-04-29 17:26 | 18.31824 | -76.55397 | 7993 ft | 164 kts | 137° |
| 2026-04-29 17:26 | 18.30989 | -76.54585 | 7398 ft | 162 kts | 137° |
| 2026-04-29 17:27 | 18.30178 | -76.53795 | 6819 ft | 159 kts | 132° |
| 2026-04-29 17:27 | 18.29386 | -76.53000 | 6233 ft | 156 kts | 136° |
| 2026-04-29 17:27 | 18.28579 | -76.52239 | 5626 ft | 156 kts | 137° |
| 2026-04-29 17:27 | 18.27776 | -76.51464 | 5028 ft | 156 kts | 136° |
| 2026-04-29 17:28 | 18.26979 | -76.50690 | 4428 ft | 155 kts | 135° |
| 2026-04-29 17:28 | 18.26198 | -76.49927 | 3831 ft | 152 kts | 134° |
| 2026-04-29 17:28 | 18.25425 | -76.49171 | 3240 ft | 151 kts | 125° |
| 2026-04-29 17:28 | 18.24694 | -76.48405 | 2652 ft | 151 kts | 135° |
| 2026-04-29 17:29 | 18.23893 | -76.47689 | 2049 ft | 150 kts | 134° |
| 2026-04-29 17:29 | 18.23105 | -76.46974 | 1438 ft | 151 kts | 142° |
| 2026-04-29 17:29 | 18.22077 | -76.46725 | 994 ft | 149 kts | 183° |
| 2026-04-29 17:29 | 18.21195 | -76.47001 | 972 ft | 123 kts | 209° |
| 2026-04-29 17:30 | 18.20484 | -76.47622 | 976 ft | 144 kts | 233° |
| 2026-04-29 17:30 | 18.20139 | -76.48658 | 841 ft | 159 kts | 265° |
| 2026-04-29 17:30 | 18.20104 | -76.49852 | 645 ft | 164 kts | 268° |
| 2026-04-29 17:30 | 18.20050 | -76.50954 | 417 ft | 137 kts | 265° |
| 2026-04-29 17:31 | 18.19991 | -76.51764 | 302 ft | 96 kts | 264° |
| 2026-04-29 17:31 | 18.19941 | -76.52519 | 135 ft | 108 kts | 262° |
| 2026-04-29 17:31 | 18.19905 | -76.53238 | -33 ft | 84 kts | 264° |
| 2026-04-29 17:31 | 18.19875 | -76.53695 | -34 ft | 33 kts | 268° |
| 2026-04-29 17:32 | 18.19863 | -76.53741 | -35 ft | 5 kts | 143° |
| 2026-04-29 17:32 | 18.19869 | -76.53709 | -35 ft | 4 kts | 70° |
| 2026-04-29 17:32 | 18.19875 | -76.53690 | -34 ft | 3 kts | 69° |
| 2026-04-29 17:32 | 18.19880 | -76.53654 | -33 ft | 7 kts | 88° |
| 2026-04-29 17:33 | 18.19883 | -76.53578 | -31 ft | 14 kts | 87° |
| 2026-04-29 17:33 | 18.19886 | -76.53453 | -31 ft | 21 kts | 83° |
| 2026-04-29 17:33 | 18.19898 | -76.53299 | -34 ft | 16 kts | 89° |
| 2026-04-29 17:33 | 18.19899 | -76.53226 | -35 ft | 4 kts | 89° |
| 2026-04-29 17:34 | 18.19899 | -76.53219 | -35 ft | 0 kts | 88° |
| 2026-04-29 17:34 | 18.19900 | -76.53200 | -36 ft | 8 kts | 87° |
| 2026-04-29 17:34 | 18.19907 | -76.53095 | -34 ft | 12 kts | 92° |
| 2026-04-29 17:34 | 18.19847 | -76.53078 | -38 ft | 6 kts | 176° |
| 2026-04-29 17:35 | 18.19846 | -76.53078 | -38 ft | 0 kts | 176° |